sensor_id;sensor_type;location;lat;lon;timestamp;P1;durP1;ratioP1;P2;durP2;ratioP2
19049;SDS011;9657;45.940;12.840;2023-07-13T00:01:51;23.75;;;11.32;;
19049;SDS011;9657;45.940;12.840;2023-07-13T00:04:19;20.20;;;10.77;;
19049;SDS011;9657;45.940;12.840;2023-07-13T00:06:48;20.77;;;10.38;;
19049;SDS011;9657;45.940;12.840;2023-07-13T00:09:17;23.30;;;9.88;;
19049;SDS011;9657;45.940;12.840;2023-07-13T00:11:45;22.73;;;9.63;;
19049;SDS011;9657;45.940;12.840;2023-07-13T00:14:13;17.85;;;9.40;;
19049;SDS011;9657;45.940;12.840;2023-07-13T00:16:41;16.05;;;8.98;;
19049;SDS011;9657;45.940;12.840;2023-07-13T00:19:09;16.63;;;7.55;;
19049;SDS011;9657;45.940;12.840;2023-07-13T00:21:36;18.05;;;6.68;;
19049;SDS011;9657;45.940;12.840;2023-07-13T00:24:04;12.77;;;6.30;;
19049;SDS011;9657;45.940;12.840;2023-07-13T00:26:33;11.25;;;5.63;;
19049;SDS011;9657;45.940;12.840;2023-07-13T00:29:00;15.13;;;5.57;;
19049;SDS011;9657;45.940;12.840;2023-07-13T00:31:27;13.18;;;5.32;;
19049;SDS011;9657;45.940;12.840;2023-07-13T00:33:54;8.50;;;4.68;;
19049;SDS011;9657;45.940;12.840;2023-07-13T00:36:21;8.38;;;4.93;;
19049;SDS011;9657;45.940;12.840;2023-07-13T00:38:48;8.18;;;4.45;;
19049;SDS011;9657;45.940;12.840;2023-07-13T00:41:15;9.35;;;4.72;;
19049;SDS011;9657;45.940;12.840;2023-07-13T00:43:43;10.18;;;4.75;;
19049;SDS011;9657;45.940;12.840;2023-07-13T00:46:16;7.35;;;4.03;;
19049;SDS011;9657;45.940;12.840;2023-07-13T00:48:46;9.05;;;4.15;;
19049;SDS011;9657;45.940;12.840;2023-07-13T00:51:16;8.25;;;4.00;;
19049;SDS011;9657;45.940;12.840;2023-07-13T00:53:47;8.52;;;4.47;;
19049;SDS011;9657;45.940;12.840;2023-07-13T00:56:14;6.75;;;4.25;;
19049;SDS011;9657;45.940;12.840;2023-07-13T00:58:41;5.97;;;3.78;;
19049;SDS011;9657;45.940;12.840;2023-07-13T01:03:46;7.70;;;4.25;;
19049;SDS011;9657;45.940;12.840;2023-07-13T01:06:13;7.35;;;4.03;;
19049;SDS011;9657;45.940;12.840;2023-07-13T01:08:41;10.60;;;3.30;;
19049;SDS011;9657;45.940;12.840;2023-07-13T01:11:08;6.85;;;3.38;;
19049;SDS011;9657;45.940;12.840;2023-07-13T01:13:35;6.07;;;3.30;;
19049;SDS011;9657;45.940;12.840;2023-07-13T01:16:05;5.22;;;3.00;;
19049;SDS011;9657;45.940;12.840;2023-07-13T01:18:40;7.60;;;2.90;;
19049;SDS011;9657;45.940;12.840;2023-07-13T01:21:08;6.40;;;3.33;;
19049;SDS011;9657;45.940;12.840;2023-07-13T01:23:35;4.63;;;3.05;;
19049;SDS011;9657;45.940;12.840;2023-07-13T01:26:02;5.03;;;3.47;;
19049;SDS011;9657;45.940;12.840;2023-07-13T01:28:30;5.25;;;2.80;;
19049;SDS011;9657;45.940;12.840;2023-07-13T01:31:02;4.72;;;2.70;;
19049;SDS011;9657;45.940;12.840;2023-07-13T01:33:30;6.95;;;3.33;;
19049;SDS011;9657;45.940;12.840;2023-07-13T01:35:57;5.43;;;2.80;;
19049;SDS011;9657;45.940;12.840;2023-07-13T01:38:25;6.15;;;3.08;;
19049;SDS011;9657;45.940;12.840;2023-07-13T01:40:52;6.07;;;3.03;;
19049;SDS011;9657;45.940;12.840;2023-07-13T01:43:20;5.20;;;3.00;;
19049;SDS011;9657;45.940;12.840;2023-07-13T01:45:47;5.15;;;2.95;;
19049;SDS011;9657;45.940;12.840;2023-07-13T01:48:14;3.75;;;2.60;;
19049;SDS011;9657;45.940;12.840;2023-07-13T01:50:41;4.10;;;2.75;;
19049;SDS011;9657;45.940;12.840;2023-07-13T01:53:09;5.85;;;3.40;;
19049;SDS011;9657;45.940;12.840;2023-07-13T01:55:38;5.13;;;2.45;;
19049;SDS011;9657;45.940;12.840;2023-07-13T01:58:05;4.68;;;2.60;;
19049;SDS011;9657;45.940;12.840;2023-07-13T02:00:32;3.90;;;2.78;;
19049;SDS011;9657;45.940;12.840;2023-07-13T02:02:59;5.95;;;2.35;;
19049;SDS011;9657;45.940;12.840;2023-07-13T02:05:26;5.18;;;2.42;;
19049;SDS011;9657;45.940;12.840;2023-07-13T02:07:53;3.60;;;2.13;;
19049;SDS011;9657;45.940;12.840;2023-07-13T02:10:20;4.82;;;2.72;;
19049;SDS011;9657;45.940;12.840;2023-07-13T02:12:49;4.32;;;2.63;;
19049;SDS011;9657;45.940;12.840;2023-07-13T02:15:17;2.78;;;2.25;;
19049;SDS011;9657;45.940;12.840;2023-07-13T02:17:44;6.53;;;2.30;;
19049;SDS011;9657;45.940;12.840;2023-07-13T02:20:11;3.63;;;2.50;;
19049;SDS011;9657;45.940;12.840;2023-07-13T02:22:38;4.53;;;2.65;;
19049;SDS011;9657;45.940;12.840;2023-07-13T02:25:05;4.57;;;2.28;;
19049;SDS011;9657;45.940;12.840;2023-07-13T02:27:33;5.47;;;2.83;;
19049;SDS011;9657;45.940;12.840;2023-07-13T02:30:01;4.85;;;2.50;;
19049;SDS011;9657;45.940;12.840;2023-07-13T02:32:29;4.43;;;2.78;;
19049;SDS011;9657;45.940;12.840;2023-07-13T02:34:56;2.28;;;2.00;;
19049;SDS011;9657;45.940;12.840;2023-07-13T02:37:23;4.22;;;2.08;;
19049;SDS011;9657;45.940;12.840;2023-07-13T02:39:50;4.10;;;2.35;;
19049;SDS011;9657;45.940;12.840;2023-07-13T02:42:17;3.97;;;2.45;;
19049;SDS011;9657;45.940;12.840;2023-07-13T02:44:44;4.55;;;2.30;;
19049;SDS011;9657;45.940;12.840;2023-07-13T02:47:12;4.20;;;2.60;;
19049;SDS011;9657;45.940;12.840;2023-07-13T02:49:39;4.90;;;2.47;;
19049;SDS011;9657;45.940;12.840;2023-07-13T02:52:07;4.70;;;2.72;;
19049;SDS011;9657;45.940;12.840;2023-07-13T02:54:34;4.07;;;2.30;;
19049;SDS011;9657;45.940;12.840;2023-07-13T02:57:01;3.50;;;2.05;;
19049;SDS011;9657;45.940;12.840;2023-07-13T02:59:28;3.60;;;2.40;;
19049;SDS011;9657;45.940;12.840;2023-07-13T03:01:55;3.88;;;2.63;;
19049;SDS011;9657;45.940;12.840;2023-07-13T03:04:24;2.72;;;2.05;;
19049;SDS011;9657;45.940;12.840;2023-07-13T03:06:51;4.35;;;2.33;;
19049;SDS011;9657;45.940;12.840;2023-07-13T03:09:18;5.43;;;2.45;;
19049;SDS011;9657;45.940;12.840;2023-07-13T03:11:45;4.43;;;2.42;;
19049;SDS011;9657;45.940;12.840;2023-07-13T03:14:12;3.55;;;2.00;;
19049;SDS011;9657;45.940;12.840;2023-07-13T03:16:39;6.03;;;2.20;;
19049;SDS011;9657;45.940;12.840;2023-07-13T03:19:06;4.32;;;1.98;;
19049;SDS011;9657;45.940;12.840;2023-07-13T03:21:35;4.05;;;2.25;;
19049;SDS011;9657;45.940;12.840;2023-07-13T03:24:02;4.05;;;2.67;;
19049;SDS011;9657;45.940;12.840;2023-07-13T03:26:30;3.72;;;2.30;;
19049;SDS011;9657;45.940;12.840;2023-07-13T03:28:57;4.35;;;2.35;;
19049;SDS011;9657;45.940;12.840;2023-07-13T03:31:24;3.97;;;2.15;;
19049;SDS011;9657;45.940;12.840;2023-07-13T03:33:53;3.63;;;2.38;;
19049;SDS011;9657;45.940;12.840;2023-07-13T03:36:22;5.63;;;2.38;;
19049;SDS011;9657;45.940;12.840;2023-07-13T03:38:54;3.85;;;2.33;;
19049;SDS011;9657;45.940;12.840;2023-07-13T03:41:23;7.53;;;3.03;;
19049;SDS011;9657;45.940;12.840;2023-07-13T03:43:51;5.18;;;2.40;;
19049;SDS011;9657;45.940;12.840;2023-07-13T03:46:18;4.75;;;1.95;;
19049;SDS011;9657;45.940;12.840;2023-07-13T03:48:47;4.53;;;2.60;;
19049;SDS011;9657;45.940;12.840;2023-07-13T03:51:15;4.20;;;2.28;;
19049;SDS011;9657;45.940;12.840;2023-07-13T03:53:44;4.93;;;2.20;;
19049;SDS011;9657;45.940;12.840;2023-07-13T03:56:14;9.98;;;2.60;;
19049;SDS011;9657;45.940;12.840;2023-07-13T03:58:42;5.57;;;2.40;;
19049;SDS011;9657;45.940;12.840;2023-07-13T04:01:10;4.30;;;2.20;;
19049;SDS011;9657;45.940;12.840;2023-07-13T04:03:38;4.03;;;1.92;;
19049;SDS011;9657;45.940;12.840;2023-07-13T04:06:07;3.50;;;2.00;;
19049;SDS011;9657;45.940;12.840;2023-07-13T04:08:46;3.78;;;1.70;;
19049;SDS011;9657;45.940;12.840;2023-07-13T04:11:15;4.43;;;2.38;;
19049;SDS011;9657;45.940;12.840;2023-07-13T04:13:42;5.40;;;2.00;;
19049;SDS011;9657;45.940;12.840;2023-07-13T04:16:10;4.30;;;1.98;;
19049;SDS011;9657;45.940;12.840;2023-07-13T04:18:37;3.28;;;1.80;;
19049;SDS011;9657;45.940;12.840;2023-07-13T04:21:04;5.10;;;2.13;;
19049;SDS011;9657;45.940;12.840;2023-07-13T04:23:31;3.90;;;2.10;;
19049;SDS011;9657;45.940;12.840;2023-07-13T04:25:58;4.55;;;1.90;;
19049;SDS011;9657;45.940;12.840;2023-07-13T04:28:26;3.20;;;2.08;;
19049;SDS011;9657;45.940;12.840;2023-07-13T04:30:54;3.97;;;2.05;;
19049;SDS011;9657;45.940;12.840;2023-07-13T04:33:21;4.80;;;1.88;;
19049;SDS011;9657;45.940;12.840;2023-07-13T04:35:48;3.67;;;1.77;;
19049;SDS011;9657;45.940;12.840;2023-07-13T04:38:19;4.07;;;2.20;;
19049;SDS011;9657;45.940;12.840;2023-07-13T04:40:47;3.97;;;1.88;;
19049;SDS011;9657;45.940;12.840;2023-07-13T04:43:14;3.53;;;1.90;;
19049;SDS011;9657;45.940;12.840;2023-07-13T04:45:42;5.05;;;2.00;;
19049;SDS011;9657;45.940;12.840;2023-07-13T04:48:09;3.63;;;2.20;;
19049;SDS011;9657;45.940;12.840;2023-07-13T04:50:37;5.78;;;2.08;;
19049;SDS011;9657;45.940;12.840;2023-07-13T04:53:04;6.32;;;1.98;;
19049;SDS011;9657;45.940;12.840;2023-07-13T04:55:31;2.83;;;1.90;;
19049;SDS011;9657;45.940;12.840;2023-07-13T04:57:58;4.78;;;1.98;;
19049;SDS011;9657;45.940;12.840;2023-07-13T05:00:25;3.53;;;1.63;;
19049;SDS011;9657;45.940;12.840;2023-07-13T05:02:55;4.30;;;1.80;;
19049;SDS011;9657;45.940;12.840;2023-07-13T05:05:23;5.15;;;2.10;;
19049;SDS011;9657;45.940;12.840;2023-07-13T05:07:52;3.60;;;2.15;;
19049;SDS011;9657;45.940;12.840;2023-07-13T05:10:19;2.80;;;1.60;;
19049;SDS011;9657;45.940;12.840;2023-07-13T05:12:47;5.13;;;1.80;;
19049;SDS011;9657;45.940;12.840;2023-07-13T05:15:14;3.83;;;1.98;;
19049;SDS011;9657;45.940;12.840;2023-07-13T05:17:46;3.80;;;2.00;;
19049;SDS011;9657;45.940;12.840;2023-07-13T05:20:14;3.28;;;1.83;;
19049;SDS011;9657;45.940;12.840;2023-07-13T05:22:43;6.72;;;2.17;;
19049;SDS011;9657;45.940;12.840;2023-07-13T05:25:12;3.22;;;1.70;;
19049;SDS011;9657;45.940;12.840;2023-07-13T05:27:39;5.55;;;2.00;;
19049;SDS011;9657;45.940;12.840;2023-07-13T05:30:06;4.18;;;2.22;;
19049;SDS011;9657;45.940;12.840;2023-07-13T05:32:36;3.25;;;1.50;;
19049;SDS011;9657;45.940;12.840;2023-07-13T05:35:03;3.03;;;1.50;;
19049;SDS011;9657;45.940;12.840;2023-07-13T05:37:32;4.90;;;2.28;;
19049;SDS011;9657;45.940;12.840;2023-07-13T05:40:00;3.28;;;1.90;;
19049;SDS011;9657;45.940;12.840;2023-07-13T05:42:27;3.70;;;1.55;;
19049;SDS011;9657;45.940;12.840;2023-07-13T05:44:56;3.33;;;1.85;;
19049;SDS011;9657;45.940;12.840;2023-07-13T05:47:23;3.97;;;1.90;;
19049;SDS011;9657;45.940;12.840;2023-07-13T05:49:50;5.22;;;2.10;;
19049;SDS011;9657;45.940;12.840;2023-07-13T05:52:17;3.75;;;1.98;;
19049;SDS011;9657;45.940;12.840;2023-07-13T05:54:45;4.68;;;1.95;;
19049;SDS011;9657;45.940;12.840;2023-07-13T05:57:12;4.72;;;1.92;;
19049;SDS011;9657;45.940;12.840;2023-07-13T05:59:39;4.38;;;2.10;;
19049;SDS011;9657;45.940;12.840;2023-07-13T06:02:07;4.97;;;1.77;;
19049;SDS011;9657;45.940;12.840;2023-07-13T06:04:35;3.20;;;1.50;;
19049;SDS011;9657;45.940;12.840;2023-07-13T06:07:02;5.00;;;2.10;;
19049;SDS011;9657;45.940;12.840;2023-07-13T06:09:30;3.15;;;1.90;;
19049;SDS011;9657;45.940;12.840;2023-07-13T06:11:58;3.25;;;1.90;;
19049;SDS011;9657;45.940;12.840;2023-07-13T06:14:25;4.07;;;1.90;;
19049;SDS011;9657;45.940;12.840;2023-07-13T06:16:52;3.97;;;2.17;;
19049;SDS011;9657;45.940;12.840;2023-07-13T06:19:19;3.28;;;2.35;;
19049;SDS011;9657;45.940;12.840;2023-07-13T06:21:46;3.70;;;1.98;;
19049;SDS011;9657;45.940;12.840;2023-07-13T06:24:13;2.08;;;1.63;;
19049;SDS011;9657;45.940;12.840;2023-07-13T06:26:40;3.70;;;1.70;;
19049;SDS011;9657;45.940;12.840;2023-07-13T06:29:09;3.20;;;1.92;;
19049;SDS011;9657;45.940;12.840;2023-07-13T06:31:36;5.75;;;2.63;;
19049;SDS011;9657;45.940;12.840;2023-07-13T06:34:03;3.10;;;1.73;;
19049;SDS011;9657;45.940;12.840;2023-07-13T06:36:30;3.17;;;1.73;;
19049;SDS011;9657;45.940;12.840;2023-07-13T06:38:57;2.70;;;1.75;;
19049;SDS011;9657;45.940;12.840;2023-07-13T06:41:24;2.85;;;1.88;;
19049;SDS011;9657;45.940;12.840;2023-07-13T06:43:51;2.63;;;1.77;;
19049;SDS011;9657;45.940;12.840;2023-07-13T06:46:21;3.65;;;2.00;;
19049;SDS011;9657;45.940;12.840;2023-07-13T06:48:49;2.45;;;1.50;;
19049;SDS011;9657;45.940;12.840;2023-07-13T06:51:16;2.72;;;1.80;;
19049;SDS011;9657;45.940;12.840;2023-07-13T06:53:43;2.40;;;1.35;;
19049;SDS011;9657;45.940;12.840;2023-07-13T06:56:10;2.50;;;1.63;;
19049;SDS011;9657;45.940;12.840;2023-07-13T06:58:38;2.53;;;1.52;;
19049;SDS011;9657;45.940;12.840;2023-07-13T07:01:05;2.95;;;1.85;;
19049;SDS011;9657;45.940;12.840;2023-07-13T07:03:33;4.00;;;1.98;;
19049;SDS011;9657;45.940;12.840;2023-07-13T07:06:01;2.80;;;1.70;;
19049;SDS011;9657;45.940;12.840;2023-07-13T07:08:38;2.58;;;1.42;;
19049;SDS011;9657;45.940;12.840;2023-07-13T07:11:05;2.65;;;1.85;;
19049;SDS011;9657;45.940;12.840;2023-07-13T07:13:34;3.08;;;1.77;;
19049;SDS011;9657;45.940;12.840;2023-07-13T07:16:01;2.47;;;1.50;;
19049;SDS011;9657;45.940;12.840;2023-07-13T07:18:28;2.58;;;1.30;;
19049;SDS011;9657;45.940;12.840;2023-07-13T07:20:57;2.15;;;1.35;;
19049;SDS011;9657;45.940;12.840;2023-07-13T07:23:24;3.45;;;1.85;;
19049;SDS011;9657;45.940;12.840;2023-07-13T07:25:51;2.75;;;1.77;;
19049;SDS011;9657;45.940;12.840;2023-07-13T07:28:18;3.70;;;1.90;;
19049;SDS011;9657;45.940;12.840;2023-07-13T07:30:45;2.45;;;1.48;;
19049;SDS011;9657;45.940;12.840;2023-07-13T07:33:13;2.78;;;1.38;;
19049;SDS011;9657;45.940;12.840;2023-07-13T07:35:42;1.48;;;1.38;;
19049;SDS011;9657;45.940;12.840;2023-07-13T07:38:10;1.77;;;1.38;;
19049;SDS011;9657;45.940;12.840;2023-07-13T07:40:38;2.72;;;1.25;;
19049;SDS011;9657;45.940;12.840;2023-07-13T07:43:05;2.60;;;1.25;;
19049;SDS011;9657;45.940;12.840;2023-07-13T07:45:33;3.20;;;1.77;;
19049;SDS011;9657;45.940;12.840;2023-07-13T07:48:00;1.55;;;1.23;;
19049;SDS011;9657;45.940;12.840;2023-07-13T07:50:27;3.90;;;1.73;;
19049;SDS011;9657;45.940;12.840;2023-07-13T07:52:55;1.92;;;1.30;;
19049;SDS011;9657;45.940;12.840;2023-07-13T07:55:24;2.35;;;1.40;;
19049;SDS011;9657;45.940;12.840;2023-07-13T07:57:52;4.10;;;1.58;;
19049;SDS011;9657;45.940;12.840;2023-07-13T08:00:19;2.45;;;1.80;;
19049;SDS011;9657;45.940;12.840;2023-07-13T08:02:46;3.75;;;1.75;;
19049;SDS011;9657;45.940;12.840;2023-07-13T08:05:13;1.88;;;1.33;;
19049;SDS011;9657;45.940;12.840;2023-07-13T08:07:41;1.88;;;1.63;;
19049;SDS011;9657;45.940;12.840;2023-07-13T08:10:08;2.58;;;1.45;;
19049;SDS011;9657;45.940;12.840;2023-07-13T08:12:37;3.75;;;1.70;;
19049;SDS011;9657;45.940;12.840;2023-07-13T08:15:05;2.78;;;1.40;;
19049;SDS011;9657;45.940;12.840;2023-07-13T08:17:35;3.28;;;1.80;;
19049;SDS011;9657;45.940;12.840;2023-07-13T08:20:02;3.08;;;1.30;;
19049;SDS011;9657;45.940;12.840;2023-07-13T08:22:30;2.72;;;1.63;;
19049;SDS011;9657;45.940;12.840;2023-07-13T08:24:58;3.55;;;1.65;;
19049;SDS011;9657;45.940;12.840;2023-07-13T08:27:26;3.30;;;1.60;;
19049;SDS011;9657;45.940;12.840;2023-07-13T08:29:55;1.50;;;1.30;;
19049;SDS011;9657;45.940;12.840;2023-07-13T08:32:23;4.63;;;1.80;;
19049;SDS011;9657;45.940;12.840;2023-07-13T08:34:50;2.42;;;1.67;;
19049;SDS011;9657;45.940;12.840;2023-07-13T08:37:18;2.72;;;1.52;;
19049;SDS011;9657;45.940;12.840;2023-07-13T08:39:45;4.30;;;1.42;;
19049;SDS011;9657;45.940;12.840;2023-07-13T08:42:14;2.47;;;1.42;;
19049;SDS011;9657;45.940;12.840;2023-07-13T08:44:51;3.78;;;2.00;;
19049;SDS011;9657;45.940;12.840;2023-07-13T08:47:26;2.38;;;1.70;;
19049;SDS011;9657;45.940;12.840;2023-07-13T08:49:57;4.32;;;1.77;;
19049;SDS011;9657;45.940;12.840;2023-07-13T08:52:28;2.97;;;1.70;;
19049;SDS011;9657;45.940;12.840;2023-07-13T08:55:01;2.45;;;1.70;;
19049;SDS011;9657;45.940;12.840;2023-07-13T08:57:35;2.92;;;1.60;;
19049;SDS011;9657;45.940;12.840;2023-07-13T09:00:05;2.90;;;1.50;;
19049;SDS011;9657;45.940;12.840;2023-07-13T09:02:39;2.83;;;1.80;;
19049;SDS011;9657;45.940;12.840;2023-07-13T09:05:12;1.38;;;1.20;;
19049;SDS011;9657;45.940;12.840;2023-07-13T09:07:43;2.00;;;1.70;;
19049;SDS011;9657;45.940;12.840;2023-07-13T09:10:21;1.88;;;1.52;;
19049;SDS011;9657;45.940;12.840;2023-07-13T09:12:56;3.05;;;1.70;;
19049;SDS011;9657;45.940;12.840;2023-07-13T09:15:37;2.47;;;1.65;;
19049;SDS011;9657;45.940;12.840;2023-07-13T09:18:08;1.70;;;1.60;;
19049;SDS011;9657;45.940;12.840;2023-07-13T09:20:42;2.60;;;1.73;;
19049;SDS011;9657;45.940;12.840;2023-07-13T09:23:15;3.22;;;2.08;;
19049;SDS011;9657;45.940;12.840;2023-07-13T09:25:45;3.17;;;2.13;;
19049;SDS011;9657;45.940;12.840;2023-07-13T09:28:17;3.50;;;1.75;;
19049;SDS011;9657;45.940;12.840;2023-07-13T09:30:52;2.05;;;1.80;;
19049;SDS011;9657;45.940;12.840;2023-07-13T09:33:25;2.40;;;1.80;;
19049;SDS011;9657;45.940;12.840;2023-07-13T09:35:54;2.88;;;1.95;;
19049;SDS011;9657;45.940;12.840;2023-07-13T09:38:22;3.30;;;2.05;;
19049;SDS011;9657;45.940;12.840;2023-07-13T09:40:58;2.92;;;2.00;;
19049;SDS011;9657;45.940;12.840;2023-07-13T09:43:34;2.72;;;1.77;;
19049;SDS011;9657;45.940;12.840;2023-07-13T09:46:02;4.43;;;2.63;;
19049;SDS011;9657;45.940;12.840;2023-07-13T09:48:33;3.35;;;2.53;;
19049;SDS011;9657;45.940;12.840;2023-07-13T09:51:06;3.65;;;2.17;;
19049;SDS011;9657;45.940;12.840;2023-07-13T09:53:40;3.60;;;2.40;;
19049;SDS011;9657;45.940;12.840;2023-07-13T09:56:18;2.97;;;2.60;;
19049;SDS011;9657;45.940;12.840;2023-07-13T09:58:45;3.10;;;2.30;;
19049;SDS011;9657;45.940;12.840;2023-07-13T10:01:14;3.25;;;2.13;;
19049;SDS011;9657;45.940;12.840;2023-07-13T10:03:51;3.47;;;2.22;;
19049;SDS011;9657;45.940;12.840;2023-07-13T10:06:20;3.45;;;2.10;;
19049;SDS011;9657;45.940;12.840;2023-07-13T10:08:49;2.97;;;2.10;;
19049;SDS011;9657;45.940;12.840;2023-07-13T10:11:18;4.03;;;2.28;;
19049;SDS011;9657;45.940;12.840;2023-07-13T10:13:48;2.65;;;2.35;;
19049;SDS011;9657;45.940;12.840;2023-07-13T10:16:22;2.97;;;2.30;;
19049;SDS011;9657;45.940;12.840;2023-07-13T10:18:53;3.70;;;2.38;;
19049;SDS011;9657;45.940;12.840;2023-07-13T10:21:22;3.40;;;2.30;;
19049;SDS011;9657;45.940;12.840;2023-07-13T10:23:54;2.92;;;2.30;;
19049;SDS011;9657;45.940;12.840;2023-07-13T10:26:25;2.92;;;2.40;;
19049;SDS011;9657;45.940;12.840;2023-07-13T10:28:56;5.20;;;2.30;;
19049;SDS011;9657;45.940;12.840;2023-07-13T10:31:30;3.65;;;2.17;;
19049;SDS011;9657;45.940;12.840;2023-07-13T10:33:57;2.63;;;1.90;;
19049;SDS011;9657;45.940;12.840;2023-07-13T10:36:29;5.25;;;2.80;;
19049;SDS011;9657;45.940;12.840;2023-07-13T10:39:00;2.58;;;1.98;;
19049;SDS011;9657;45.940;12.840;2023-07-13T10:41:29;2.47;;;1.70;;
19049;SDS011;9657;45.940;12.840;2023-07-13T10:44:00;2.80;;;2.28;;
19049;SDS011;9657;45.940;12.840;2023-07-13T10:46:29;3.28;;;1.90;;
19049;SDS011;9657;45.940;12.840;2023-07-13T10:48:57;3.13;;;2.08;;
19049;SDS011;9657;45.940;12.840;2023-07-13T10:51:27;3.17;;;2.08;;
19049;SDS011;9657;45.940;12.840;2023-07-13T10:56:43;2.05;;;1.77;;
19049;SDS011;9657;45.940;12.840;2023-07-13T10:59:12;2.00;;;1.80;;
19049;SDS011;9657;45.940;12.840;2023-07-13T11:01:48;2.78;;;2.00;;
19049;SDS011;9657;45.940;12.840;2023-07-13T11:04:20;2.72;;;2.00;;
19049;SDS011;9657;45.940;12.840;2023-07-13T11:06:50;2.75;;;2.28;;
19049;SDS011;9657;45.940;12.840;2023-07-13T11:09:30;2.88;;;1.80;;
19049;SDS011;9657;45.940;12.840;2023-07-13T11:11:59;2.72;;;1.83;;
19049;SDS011;9657;45.940;12.840;2023-07-13T11:14:29;3.17;;;2.50;;
19049;SDS011;9657;45.940;12.840;2023-07-13T11:20:21;2.55;;;2.22;;
19049;SDS011;9657;45.940;12.840;2023-07-13T11:22:50;2.42;;;2.00;;
19049;SDS011;9657;45.940;12.840;2023-07-13T11:25:33;2.45;;;1.98;;
19049;SDS011;9657;45.940;12.840;2023-07-13T11:28:22;2.53;;;2.33;;
19049;SDS011;9657;45.940;12.840;2023-07-13T11:30:59;2.90;;;1.92;;
19049;SDS011;9657;45.940;12.840;2023-07-13T11:36:31;3.83;;;2.17;;
19049;SDS011;9657;45.940;12.840;2023-07-13T11:39:05;2.80;;;2.13;;
19049;SDS011;9657;45.940;12.840;2023-07-13T11:41:44;2.42;;;1.88;;
19049;SDS011;9657;45.940;12.840;2023-07-13T11:44:16;2.95;;;2.00;;
19049;SDS011;9657;45.940;12.840;2023-07-13T11:46:46;3.00;;;2.13;;
19049;SDS011;9657;45.940;12.840;2023-07-13T11:49:17;1.70;;;1.60;;
19049;SDS011;9657;45.940;12.840;2023-07-13T11:51:46;3.90;;;1.98;;
19049;SDS011;9657;45.940;12.840;2023-07-13T11:54:22;2.55;;;1.80;;
19049;SDS011;9657;45.940;12.840;2023-07-13T11:56:52;2.42;;;1.88;;
19049;SDS011;9657;45.940;12.840;2023-07-13T11:59:22;2.97;;;2.00;;
19049;SDS011;9657;45.940;12.840;2023-07-13T12:01:52;3.53;;;1.90;;
19049;SDS011;9657;45.940;12.840;2023-07-13T12:04:22;2.53;;;2.03;;
19049;SDS011;9657;45.940;12.840;2023-07-13T12:06:56;2.15;;;1.95;;
19049;SDS011;9657;45.940;12.840;2023-07-13T12:09:26;3.13;;;2.00;;
19049;SDS011;9657;45.940;12.840;2023-07-13T12:11:56;2.75;;;2.38;;
19049;SDS011;9657;45.940;12.840;2023-07-13T12:14:25;2.17;;;1.98;;
19049;SDS011;9657;45.940;12.840;2023-07-13T12:16:52;2.10;;;1.80;;
19049;SDS011;9657;45.940;12.840;2023-07-13T12:19:22;1.83;;;1.63;;
19049;SDS011;9657;45.940;12.840;2023-07-13T12:21:52;1.92;;;1.65;;
19049;SDS011;9657;45.940;12.840;2023-07-13T12:24:23;2.35;;;1.90;;
19049;SDS011;9657;45.940;12.840;2023-07-13T12:26:52;2.72;;;2.00;;
19049;SDS011;9657;45.940;12.840;2023-07-13T12:29:21;1.95;;;1.83;;
19049;SDS011;9657;45.940;12.840;2023-07-13T12:31:48;1.95;;;1.80;;
19049;SDS011;9657;45.940;12.840;2023-07-13T12:34:18;2.63;;;1.80;;
19049;SDS011;9657;45.940;12.840;2023-07-13T12:36:46;2.20;;;2.00;;
19049;SDS011;9657;45.940;12.840;2023-07-13T12:39:15;2.75;;;2.20;;
19049;SDS011;9657;45.940;12.840;2023-07-13T12:41:46;2.42;;;2.10;;
19049;SDS011;9657;45.940;12.840;2023-07-13T12:44:15;2.08;;;1.88;;
19049;SDS011;9657;45.940;12.840;2023-07-13T12:46:51;1.77;;;1.48;;
19049;SDS011;9657;45.940;12.840;2023-07-13T12:49:22;2.13;;;1.77;;
19049;SDS011;9657;45.940;12.840;2023-07-13T12:51:51;2.72;;;1.80;;
19049;SDS011;9657;45.940;12.840;2023-07-13T12:54:24;1.92;;;1.73;;
19049;SDS011;9657;45.940;12.840;2023-07-13T12:56:54;2.65;;;2.08;;
19049;SDS011;9657;45.940;12.840;2023-07-13T12:59:23;2.17;;;1.95;;
19049;SDS011;9657;45.940;12.840;2023-07-13T13:01:54;2.25;;;2.00;;
19049;SDS011;9657;45.940;12.840;2023-07-13T13:04:21;2.28;;;2.08;;
19049;SDS011;9657;45.940;12.840;2023-07-13T13:06:59;3.08;;;1.67;;
19049;SDS011;9657;45.940;12.840;2023-07-13T13:09:27;2.08;;;1.85;;
19049;SDS011;9657;45.940;12.840;2023-07-13T13:11:56;2.33;;;2.10;;
19049;SDS011;9657;45.940;12.840;2023-07-13T13:14:23;2.30;;;2.10;;
19049;SDS011;9657;45.940;12.840;2023-07-13T13:16:50;2.70;;;2.00;;
19049;SDS011;9657;45.940;12.840;2023-07-13T13:19:21;2.08;;;1.88;;
19049;SDS011;9657;45.940;12.840;2023-07-13T13:21:53;1.95;;;1.70;;
19049;SDS011;9657;45.940;12.840;2023-07-13T13:24:22;2.25;;;1.92;;
19049;SDS011;9657;45.940;12.840;2023-07-13T13:26:51;2.60;;;1.80;;
19049;SDS011;9657;45.940;12.840;2023-07-13T13:29:23;1.85;;;1.75;;
19049;SDS011;9657;45.940;12.840;2023-07-13T13:31:51;1.85;;;1.75;;
19049;SDS011;9657;45.940;12.840;2023-07-13T13:34:19;2.88;;;1.98;;
19049;SDS011;9657;45.940;12.840;2023-07-13T13:36:48;2.42;;;2.22;;
19049;SDS011;9657;45.940;12.840;2023-07-13T13:39:20;2.03;;;1.83;;
19049;SDS011;9657;45.940;12.840;2023-07-13T13:41:51;2.22;;;1.88;;
19049;SDS011;9657;45.940;12.840;2023-07-13T13:44:19;2.63;;;2.22;;
19049;SDS011;9657;45.940;12.840;2023-07-13T13:46:49;2.25;;;1.92;;
19049;SDS011;9657;45.940;12.840;2023-07-13T13:49:19;2.53;;;2.33;;
19049;SDS011;9657;45.940;12.840;2023-07-13T13:51:48;2.30;;;2.10;;
19049;SDS011;9657;45.940;12.840;2023-07-13T13:54:16;2.20;;;2.00;;
19049;SDS011;9657;45.940;12.840;2023-07-13T13:56:45;1.70;;;1.60;;
19049;SDS011;9657;45.940;12.840;2023-07-13T13:59:13;2.33;;;2.10;;
19049;SDS011;9657;45.940;12.840;2023-07-13T14:01:40;2.15;;;1.83;;
19049;SDS011;9657;45.940;12.840;2023-07-13T14:04:12;2.95;;;2.05;;
19049;SDS011;9657;45.940;12.840;2023-07-13T14:06:42;2.08;;;1.85;;
19049;SDS011;9657;45.940;12.840;2023-07-13T14:09:10;3.03;;;2.35;;
19049;SDS011;9657;45.940;12.840;2023-07-13T14:11:39;2.38;;;1.95;;
19049;SDS011;9657;45.940;12.840;2023-07-13T14:14:09;2.13;;;1.92;;
19049;SDS011;9657;45.940;12.840;2023-07-13T14:16:40;2.47;;;2.28;;
19049;SDS011;9657;45.940;12.840;2023-07-13T14:19:11;2.45;;;2.25;;
19049;SDS011;9657;45.940;12.840;2023-07-13T14:21:39;2.40;;;2.05;;
19049;SDS011;9657;45.940;12.840;2023-07-13T14:24:06;2.67;;;2.20;;
19049;SDS011;9657;45.940;12.840;2023-07-13T14:26:35;3.38;;;2.38;;
19049;SDS011;9657;45.940;12.840;2023-07-13T14:29:05;2.42;;;2.22;;
19049;SDS011;9657;45.940;12.840;2023-07-13T14:31:38;2.45;;;2.22;;
19049;SDS011;9657;45.940;12.840;2023-07-13T14:34:05;1.98;;;1.75;;
19049;SDS011;9657;45.940;12.840;2023-07-13T14:36:36;2.40;;;2.20;;
19049;SDS011;9657;45.940;12.840;2023-07-13T14:39:10;2.38;;;2.00;;
19049;SDS011;9657;45.940;12.840;2023-07-13T14:41:38;3.13;;;2.30;;
19049;SDS011;9657;45.940;12.840;2023-07-13T14:44:09;2.50;;;2.30;;
19049;SDS011;9657;45.940;12.840;2023-07-13T14:46:38;2.70;;;2.50;;
19049;SDS011;9657;45.940;12.840;2023-07-13T14:49:06;2.35;;;2.15;;
19049;SDS011;9657;45.940;12.840;2023-07-13T14:51:41;3.20;;;2.47;;
19049;SDS011;9657;45.940;12.840;2023-07-13T14:54:08;2.95;;;2.50;;
19049;SDS011;9657;45.940;12.840;2023-07-13T14:56:36;2.70;;;2.50;;
19049;SDS011;9657;45.940;12.840;2023-07-13T14:59:03;2.38;;;2.17;;
19049;SDS011;9657;45.940;12.840;2023-07-13T15:01:32;2.70;;;2.50;;
19049;SDS011;9657;45.940;12.840;2023-07-13T15:04:00;2.70;;;2.50;;
19049;SDS011;9657;45.940;12.840;2023-07-13T15:06:28;2.88;;;2.35;;
19049;SDS011;9657;45.940;12.840;2023-07-13T15:08:57;2.50;;;2.30;;
19049;SDS011;9657;45.940;12.840;2023-07-13T15:11:24;2.72;;;2.53;;